Nearby METAR Reports

KLNK - Lincoln, Nebraska, USA
Distance from station: WNW 8mi, 13km
Updated: Fri, 07-Oct-2022 7:54am CDT
Overcast
Overcast
 Wind from N
Wind: N 10 mph , 17 km/h
Temperature: 43°F , 6°C
Wind Chill: 37°F , 3°C
Dew Point: 32°F , 0°C
Humidity: 66%
Barometer: 30.54 inHg , 1034.2 hPa
Clouds: Overcast
Visibility: 10 miles , 16 km
Cloud details: Overcast 8500 ft
2022/10/07 12:54 KLNK 071254Z 36009KT 10SM OVC085 06/00 A3054 RMK AO2 SLP344 T00610000
KAHQ - Wahoo, Nebraska, USA
Distance from station: N 31mi, 49km
Updated: Fri, 07-Oct-2022 8:35am CDT
Clear
Clear
 Wind from N
Wind: N 8 mph , 13 km/h
Temperature: 41°F , 5°C
Wind Chill: 36°F , 2°C
Dew Point: 32°F , 0°C
Humidity: 70%
Barometer: 30.54 inHg , 1034.2 hPa
Clouds: Clear
Visibility: 10 miles , 16 km
2022/10/07 13:35 KAHQ 071335Z AUTO 35007KT 10SM CLR 05/00 A3054 RMK AO2 T00470000
 
KBIE - Beatrice Municip, Nebraska, USA
Distance from station: S 36mi, 57km
Updated: Fri, 07-Oct-2022 8:35am CDT
Overcast
Overcast
 Wind from N
Wind: N 8 mph , 13 km/h
Temperature: 45°F , 7°C
Wind Chill: 41°F , 5°C
Dew Point: 37°F , 3°C
Humidity: 76%
Barometer: 30.52 inHg , 1033.5 hPa
Clouds: Overcast
Visibility: 10 miles , 16 km
Cloud details: Overcast 8000 ft
2022/10/07 13:35 KBIE 071335Z AUTO 01007KT 10SM OVC080 07/03 A3052 RMK AO2 T00670026
KMLE - Omaha/Millard, Nebraska, USA
Distance from station: NE 39mi, 63km
Updated: Fri, 07-Oct-2022 8:35am CDT
Clear
Clear
 Wind from N
Wind: N 6 mph , 9 km/h
Temperature: 41°F , 5°C
Wind Chill: 37°F , 3°C
Dew Point: 32°F , 0°C
Humidity: 70%
Barometer: 30.55 inHg , 1034.5 hPa
Clouds: Clear
Visibility: 10 miles , 16 km
2022/10/07 13:35 KMLE 071335Z AUTO 35005KT 10SM CLR 05/00 A3055 RMK AO2 T00490002
 
KPMV - Plattsmouth Muni, Nebraska, USA
Distance from station: ENE 39mi, 63km
Updated: Fri, 07-Oct-2022 8:35am CDT
Clear
Clear
 Wind from N
Wind: N 6 mph , 9 km/h
Temperature: 43°F , 6°C
Wind Chill: 39°F , 4°C
Dew Point: 34°F , 1°C
Humidity: 71%
Barometer: 30.53 inHg , 1033.9 hPa
Clouds: Clear
Visibility: 10 miles , 16 km
2022/10/07 13:35 KPMV 071335Z AUTO 35005KT 10SM CLR 06/01 A3053 RMK AO2 T00560005
KAFK - Nebraska City, Nebraska, USA
Distance from station: ESE 43mi, 69km
Updated: Fri, 07-Oct-2022 8:35am CDT
Partly Cloudy
Partly Cloudy
 Wind from NNE
Wind: NNE 10 mph , 17 km/h
Temperature: 45°F , 7°C
Wind Chill: 40°F , 4°C
Dew Point: 32°F , 0°C
Humidity: 61%
Barometer: 30.52 inHg , 1033.5 hPa
Clouds: Partly Cloudy
Visibility: 10 miles , 16 km
Cloud details: Partly Cloudy 8500 ft
2022/10/07 13:35 KAFK 071335Z AUTO 02009KT 10SM SCT085 07/00 A3052 RMK AO2 T00720004
 
KOFF - Offutt Afb/Belle, Nebraska, USA
Distance from station: ENE 44mi, 70km
Updated: Fri, 07-Oct-2022 7:55am CDT
Mostly Cloudy
Mostly Cloudy
 Wind from N
Wind: N 9 mph , 15 km/h
Temperature: 43°F , 6°C
Wind Chill: 38°F , 3°C
Dew Point: 32°F , 0°C
Humidity: 66%
Barometer: 30.54 inHg , 1034.2 hPa
Clouds: Mostly Cloudy
Visibility: 10 miles , 16 km
Cloud details: Mostly Cloudy 13000 ft
2022/10/07 12:55 KOFF 071255Z 35008KT 10SM BKN130 06/M00 A3054 RMK AO2A SLP350 T00611002 PWINO PNO FZRANO TSNO VISNO RWY13 $
KFET - Fremont Muni Arp, Nebraska, USA
Distance from station: N 46mi, 74km
Updated: Fri, 07-Oct-2022 8:35am CDT
Clear
Clear
 Wind from NNW
Wind: NNW 6 mph , 9 km/h
Temperature: 39°F , 4°C
Wind Chill: 35°F , 2°C
Dew Point: 32°F , 0°C
Humidity: 75%
Barometer: 30.55 inHg , 1034.5 hPa
Clouds: Clear
Visibility: 10 miles , 16 km
2022/10/07 13:35 KFET 071335Z AUTO 34005KT 10SM CLR 04/00 A3055 RMK AO2 T00410001
 
KBTA - Blair Muni, Nebraska, USA
Distance from station: NNE 51mi, 82km
Updated: Fri, 07-Oct-2022 8:35am CDT
Clear
Clear
 Wind from N
Wind: N 10 mph , 17 km/h
Temperature: 39°F , 4°C
Wind Chill: 32°F , 0°C
Dew Point: 32°F , 0°C
Humidity: 75%
Barometer: 30.53 inHg , 1033.9 hPa
Clouds: Clear
Visibility: 10 miles , 16 km
2022/10/07 13:35 KBTA 071335Z AUTO 35009KT 10SM CLR 04/00 A3053 RMK AO2 T00380002
KJYR - York, Nebraska, USA
Distance from station: W 52mi, 84km
Updated: Fri, 07-Oct-2022 8:35am CDT
Overcast
Overcast
 Wind from NNE
Wind: NNE 13 mph , 20 km/h
Temperature: 41°F , 5°C
Wind Chill: 34°F , 1°C
Dew Point: 32°F , 0°C
Humidity: 70%
Barometer: 30.54 inHg , 1034.2 hPa
Clouds: Overcast
Visibility: 10 miles , 16 km
Cloud details: Overcast 7000 ft
2022/10/07 13:35 KJYR 071335Z AUTO 02011KT 10SM OVC070 05/00 A3054 RMK AO2
 
KOMA - Omaha/Eppley, Nebraska, USA
Distance from station: NE 53mi, 85km
Updated: Fri, 07-Oct-2022 7:52am CDT
Mostly Cloudy
Mostly Cloudy
 Wind from N
Wind: N 8 mph , 13 km/h
Temperature: 37°F , 3°C
Wind Chill: 31°F , -1°C
Dew Point: 34°F , 1°C
Humidity: 87%
Barometer: 30.54 inHg , 1034.2 hPa
Clouds: Mostly Cloudy
Visibility: 10 miles , 16 km
Cloud details: Few Clouds 9000 ft
Mostly Cloudy 14000 ft
2022/10/07 12:52 KOMA 071252Z 35007KT 10SM FEW090 BKN140 03/01 A3054 RMK AO2 SLP347 T00330006
KOLU - Columbus Muni, Nebraska, USA
Distance from station: NW 58mi, 93km
Updated: Fri, 07-Oct-2022 7:56am CDT
Partly Cloudy
Partly Cloudy
 Wind from N
Wind: N 7 mph , 11 km/h
Temperature: 39°F , 4°C
Wind Chill: 34°F , 1°C
Dew Point: 30°F , -1°C
Humidity: 70%
Barometer: 30.55 inHg , 1034.5 hPa
Clouds: Partly Cloudy
Visibility: 10 miles , 16 km
Cloud details: Partly Cloudy 12000 ft
2022/10/07 12:56 KOLU 071256Z AUTO 35006KT 10SM SCT120 04/M01 A3055 RMK AO2 SLP357 T00391011